createdAt,value
2023-05-06T00:00:04.969Z,23.53
2023-05-06T00:02:32.393Z,16.83
2023-05-06T00:05:00.148Z,24.47
2023-05-06T00:07:27.074Z,25.13
2023-05-06T00:09:53.697Z,24.57
2023-05-06T00:12:20.502Z,22.60
2023-05-06T00:14:47.089Z,23.57
2023-05-06T00:17:13.728Z,27.13
2023-05-06T00:19:41.707Z,17.80
2023-05-06T00:22:08.384Z,29.60
2023-05-06T00:24:34.988Z,24.33
2023-05-06T00:27:01.864Z,17.47
2023-05-06T00:29:28.418Z,16.83
2023-05-06T00:31:55.125Z,21.70
2023-05-06T00:34:21.746Z,14.10
2023-05-06T00:36:49.004Z,23.10
2023-05-06T00:39:16.111Z,19.70
2023-05-06T00:41:46.339Z,19.90
2023-05-06T00:44:12.962Z,24.10
2023-05-06T00:46:39.650Z,23.30
2023-05-06T00:49:06.353Z,21.80
2023-05-06T00:51:33.049Z,18.53
2023-05-06T00:54:01.344Z,14.10
2023-05-06T00:56:28.461Z,20.90
2023-05-06T00:58:55.116Z,19.50
2023-05-06T01:01:22.396Z,24.20
2023-05-06T01:03:49.084Z,15.30
2023-05-06T01:06:22.359Z,22.17
2023-05-06T01:08:56.925Z,16.67
2023-05-06T01:11:29.382Z,15.67
2023-05-06T01:14:01.838Z,25.20
2023-05-06T01:16:30.738Z,13.30
2023-05-06T01:18:59.675Z,21.00
2023-05-06T01:21:34.065Z,18.83
2023-05-06T01:24:01.536Z,25.17
2023-05-06T01:26:28.138Z,15.10
2023-05-06T01:28:55.443Z,16.20
2023-05-06T01:31:25.748Z,13.20
2023-05-06T01:34:02.438Z,14.20
2023-05-06T01:36:33.009Z,15.73
2023-05-06T01:39:08.390Z,16.17
2023-05-06T01:41:37.652Z,23.50
2023-05-06T01:44:06.919Z,21.83
2023-05-06T01:46:33.761Z,15.87
2023-05-06T01:49:04.098Z,21.17
2023-05-06T01:51:32.741Z,17.77
2023-05-06T01:53:59.540Z,19.40
2023-05-06T01:56:29.430Z,16.37
2023-05-06T01:58:57.128Z,25.93
2023-05-06T02:01:25.338Z,23.77
2023-05-06T02:03:52.104Z,23.07
2023-05-06T02:06:19.200Z,20.83
2023-05-06T02:08:46.104Z,24.23
2023-05-06T02:11:12.784Z,18.93
2023-05-06T02:13:40.225Z,17.60
2023-05-06T02:16:08.050Z,28.77
2023-05-06T02:18:35.100Z,14.87
2023-05-06T02:21:02.428Z,18.87
2023-05-06T02:23:29.400Z,24.73
2023-05-06T02:25:57.347Z,27.83
2023-05-06T02:28:24.327Z,22.07
2023-05-06T02:30:55.152Z,13.57
2023-05-06T02:33:22.125Z,13.33
2023-05-06T02:35:49.025Z,18.13
2023-05-06T02:38:15.823Z,14.87
2023-05-06T02:40:42.389Z,19.33
2023-05-06T02:43:09.026Z,19.73
2023-05-06T02:45:35.952Z,19.67
2023-05-06T02:48:03.567Z,17.30
2023-05-06T02:50:30.523Z,20.13
2023-05-06T02:52:57.111Z,18.93
2023-05-06T02:55:23.888Z,38.90
2023-05-06T02:57:50.789Z,21.10
2023-05-06T03:00:17.921Z,21.43
2023-05-06T03:02:45.245Z,20.47
2023-05-06T03:05:12.696Z,25.13
2023-05-06T03:07:39.392Z,14.57
2023-05-06T03:10:07.012Z,25.47
2023-05-06T03:12:33.632Z,18.07
2023-05-06T03:15:00.764Z,24.17
2023-05-06T03:17:27.463Z,15.23
2023-05-06T03:19:54.420Z,22.53
2023-05-06T03:22:21.701Z,23.90
2023-05-06T03:24:48.309Z,15.53
2023-05-06T03:27:15.215Z,25.73
2023-05-06T03:29:42.101Z,17.17
2023-05-06T03:32:08.672Z,14.23
2023-05-06T03:34:35.633Z,20.63
2023-05-06T03:37:02.345Z,17.10
2023-05-06T03:39:29.661Z,18.80
2023-05-06T03:41:56.299Z,17.37
2023-05-06T03:44:22.910Z,17.00
2023-05-06T03:46:49.830Z,18.33
2023-05-06T03:49:16.915Z,20.93
2023-05-06T03:51:43.827Z,27.87
2023-05-06T03:54:10.372Z,16.13
2023-05-06T03:56:37.714Z,18.00
2023-05-06T03:59:04.627Z,19.60
2023-05-06T04:01:31.225Z,15.43
2023-05-06T04:03:58.112Z,17.63
2023-05-06T04:06:25.417Z,18.70
2023-05-06T04:08:52.002Z,19.83
2023-05-06T04:11:18.662Z,24.77
2023-05-06T04:13:46.249Z,16.37
2023-05-06T04:16:13.173Z,19.07
2023-05-06T04:18:39.873Z,14.03
2023-05-06T04:21:06.785Z,20.77
2023-05-06T04:23:33.434Z,22.23
2023-05-06T04:26:00.531Z,19.43
2023-05-06T04:28:27.185Z,16.40
2023-05-06T04:30:54.463Z,20.07
2023-05-06T04:33:21.544Z,20.43
2023-05-06T04:35:56.008Z,19.13
2023-05-06T04:38:24.937Z,23.00
2023-05-06T04:40:51.543Z,28.23
2023-05-06T04:43:18.121Z,22.17
2023-05-06T04:45:48.610Z,18.07
2023-05-06T04:48:18.897Z,20.77
2023-05-06T04:50:46.230Z,23.37
2023-05-06T04:53:12.868Z,19.27
2023-05-06T04:55:39.852Z,19.33
2023-05-06T04:58:07.107Z,17.70
2023-05-06T05:00:34.056Z,16.70
2023-05-06T05:03:01.348Z,16.37
2023-05-06T05:05:28.832Z,19.20
2023-05-06T05:07:55.821Z,16.20
2023-05-06T05:10:22.414Z,18.67
2023-05-06T05:12:49.027Z,19.33
2023-05-06T05:15:16.022Z,14.57
2023-05-06T05:17:42.677Z,20.67
2023-05-06T05:20:10.169Z,26.40
2023-05-06T05:22:37.576Z,18.70
2023-05-06T05:25:07.502Z,16.97
2023-05-06T05:27:34.691Z,32.20
2023-05-06T05:30:01.599Z,16.73
2023-05-06T05:32:28.274Z,18.13
2023-05-06T05:34:54.882Z,18.43
2023-05-06T05:37:21.527Z,20.43
2023-05-06T05:39:48.789Z,22.37
2023-05-06T05:42:15.368Z,24.33
2023-05-06T05:44:42.251Z,20.93
2023-05-06T05:47:09.163Z,28.20
2023-05-06T05:49:35.865Z,15.73
2023-05-06T05:52:02.837Z,22.63
2023-05-06T05:54:29.557Z,14.23
2023-05-06T05:56:57.348Z,24.40
2023-05-06T05:59:24.193Z,18.50
2023-05-06T06:01:51.032Z,18.07
2023-05-06T06:04:17.708Z,24.07
2023-05-06T06:06:44.316Z,17.67
2023-05-06T06:09:11.370Z,19.37
2023-05-06T06:11:38.334Z,16.87
2023-05-06T06:14:05.543Z,21.13
2023-05-06T06:16:32.214Z,20.87
2023-05-06T06:18:59.103Z,23.07
2023-05-06T06:21:27.193Z,28.20
2023-05-06T06:23:53.957Z,17.20
2023-05-06T06:26:20.966Z,22.40
2023-05-06T06:28:47.669Z,17.67
2023-05-06T06:31:15.079Z,16.03
2023-05-06T06:33:41.669Z,18.80
2023-05-06T06:36:08.995Z,22.73
2023-05-06T06:38:35.835Z,15.00
2023-05-06T06:41:02.660Z,22.77
2023-05-06T06:43:29.475Z,21.60
2023-05-06T06:45:56.449Z,20.33
2023-05-06T06:48:23.713Z,18.93
2023-05-06T06:50:51.271Z,19.50
2023-05-06T06:53:17.857Z,26.90
2023-05-06T06:55:45.118Z,36.87
2023-05-06T06:58:12.103Z,17.90
2023-05-06T07:00:39.917Z,22.67
2023-05-06T07:03:06.916Z,15.30
2023-05-06T07:05:34.245Z,23.57
2023-05-06T07:08:01.140Z,20.63
2023-05-06T07:10:27.801Z,20.73
2023-05-06T07:12:54.527Z,20.80
2023-05-06T07:15:21.533Z,28.77
2023-05-06T07:17:48.288Z,20.20
2023-05-06T07:20:15.437Z,15.47
2023-05-06T07:22:44.865Z,20.63
2023-05-06T07:25:11.915Z,21.10
2023-05-06T07:27:39.039Z,15.23
2023-05-06T07:30:07.375Z,17.37
2023-05-06T07:32:34.129Z,17.90
2023-05-06T07:35:01.487Z,15.23
2023-05-06T07:37:28.230Z,24.30
2023-05-06T07:39:56.580Z,17.67
2023-05-06T07:42:23.155Z,22.77
2023-05-06T07:44:49.710Z,25.60
2023-05-06T07:47:26.478Z,17.57
2023-05-06T07:49:53.419Z,20.33
2023-05-06T07:52:20.082Z,16.17
2023-05-06T07:54:47.024Z,18.83
2023-05-06T07:57:15.157Z,22.10
2023-05-06T07:59:42.347Z,21.90
2023-05-06T08:02:09.239Z,22.30
2023-05-06T08:04:36.149Z,20.97
2023-05-06T08:07:02.954Z,19.87
2023-05-06T08:09:29.899Z,21.03
2023-05-06T08:11:57.617Z,15.90
2023-05-06T08:14:25.539Z,20.33
2023-05-06T08:16:52.790Z,17.97
2023-05-06T08:19:20.572Z,22.17
2023-05-06T08:21:48.025Z,18.07
2023-05-06T08:24:14.988Z,28.10
2023-05-06T08:26:42.016Z,21.77
2023-05-06T08:29:08.670Z,24.07
2023-05-06T08:31:35.972Z,29.20
2023-05-06T08:34:02.743Z,18.40
2023-05-06T08:36:29.440Z,22.47
2023-05-06T08:38:56.086Z,22.00
2023-05-06T08:41:23.085Z,16.70
2023-05-06T08:43:50.164Z,22.10
2023-05-06T08:46:18.053Z,19.20
2023-05-06T08:48:45.489Z,24.67
2023-05-06T08:51:14.371Z,24.13
2023-05-06T08:53:46.537Z,15.20
2023-05-06T08:56:14.784Z,20.67
2023-05-06T08:58:45.160Z,21.03
2023-05-06T09:01:13.863Z,29.47
2023-05-06T09:03:40.620Z,23.67
2023-05-06T09:06:08.175Z,18.73
2023-05-06T09:08:35.426Z,24.37
2023-05-06T09:11:02.195Z,15.23
2023-05-06T09:13:29.525Z,20.33
2023-05-06T09:15:56.381Z,19.00
2023-05-06T09:18:23.291Z,18.37
2023-05-06T09:20:50.276Z,28.70
2023-05-06T09:23:18.165Z,22.30
2023-05-06T09:25:46.057Z,16.73
2023-05-06T09:28:13.603Z,24.70
2023-05-06T09:30:41.181Z,14.87
2023-05-06T09:33:08.381Z,12.97
2023-05-06T09:35:39.318Z,19.73
2023-05-06T09:38:07.361Z,15.27
2023-05-06T09:40:35.275Z,18.07
2023-05-06T09:43:02.481Z,11.93
2023-05-06T09:45:30.054Z,13.20
2023-05-06T09:47:57.850Z,12.83
2023-05-06T09:50:24.954Z,13.23
2023-05-06T09:52:52.280Z,12.83
2023-05-06T09:55:20.070Z,13.10
2023-05-06T09:57:47.750Z,12.53
2023-05-06T10:04:05.486Z,10.00
2023-05-06T10:06:34.894Z,10.00
2023-05-06T10:09:02.181Z,12.47
2023-05-06T10:11:30.375Z,13.00
2023-05-06T10:13:59.089Z,12.20
2023-05-06T10:16:26.094Z,15.13
2023-05-06T10:18:55.565Z,12.33
2023-05-06T10:21:26.742Z,12.60
2023-05-06T10:24:06.310Z,13.63
2023-05-06T10:26:36.161Z,11.57
2023-05-06T10:29:08.862Z,11.40
2023-05-06T10:31:43.494Z,14.50
2023-05-06T10:34:10.269Z,10.23
2023-05-06T10:36:38.623Z,16.57
2023-05-06T10:39:09.278Z,17.20
2023-05-06T10:41:37.048Z,22.70
2023-05-06T10:44:05.424Z,13.27
2023-05-06T10:46:32.156Z,13.23
2023-05-06T10:49:17.669Z,11.03
2023-05-06T10:51:44.262Z,22.67
2023-05-06T10:54:21.337Z,15.23
2023-05-06T10:57:11.884Z,15.40
2023-05-06T10:59:45.816Z,11.13
2023-05-06T11:02:13.360Z,9.30
2023-05-06T11:04:40.585Z,10.27
2023-05-06T11:07:10.001Z,13.03
2023-05-06T11:09:55.339Z,10.27
2023-05-06T11:12:22.317Z,9.23
2023-05-06T11:14:49.666Z,9.67
2023-05-06T11:17:32.939Z,8.60
2023-05-06T11:20:19.840Z,7.93
2023-05-06T11:22:46.604Z,7.17
2023-05-06T11:25:13.362Z,8.07
2023-05-06T11:27:40.849Z,7.40
2023-05-06T11:30:14.517Z,8.43
2023-05-06T11:32:43.494Z,7.00
2023-05-06T11:35:11.747Z,6.93
2023-05-06T11:37:38.493Z,6.10
2023-05-06T11:40:14.218Z,6.30
2023-05-06T11:42:41.163Z,7.63
2023-05-06T11:45:10.975Z,6.83
2023-05-06T11:47:43.813Z,10.47
2023-05-06T11:50:11.140Z,8.77
2023-05-06T11:52:38.231Z,10.27
2023-05-06T11:55:09.435Z,7.63
2023-05-06T11:57:36.039Z,7.23
2023-05-06T12:00:04.335Z,6.67
2023-05-06T12:02:31.646Z,6.93
2023-05-06T12:04:59.165Z,15.07
2023-05-06T12:07:25.964Z,7.30
2023-05-06T12:09:52.814Z,10.07
2023-05-06T12:12:21.616Z,10.80
2023-05-06T12:14:50.015Z,7.33
2023-05-06T12:17:16.882Z,8.00
2023-05-06T12:19:45.761Z,8.30
2023-05-06T12:22:17.237Z,8.23
2023-05-06T12:24:43.990Z,7.53
2023-05-06T12:27:10.841Z,8.90
2023-05-06T12:29:37.460Z,5.00
2023-05-06T12:32:08.733Z,12.70
2023-05-06T12:34:39.985Z,5.67
2023-05-06T12:37:08.445Z,7.43
2023-05-06T12:39:36.456Z,6.70
2023-05-06T12:42:03.399Z,6.20
2023-05-06T12:44:34.671Z,8.10
2023-05-06T12:47:02.749Z,9.23
2023-05-06T12:49:47.670Z,10.90
2023-05-06T12:52:17.093Z,10.00
2023-05-06T12:54:48.058Z,5.80
2023-05-06T12:57:18.908Z,10.70
2023-05-06T12:59:46.100Z,7.40
2023-05-06T13:02:16.783Z,5.37
2023-05-06T13:04:44.557Z,5.87
2023-05-06T13:07:12.355Z,5.50
2023-05-06T13:09:40.750Z,5.70
2023-05-06T13:12:07.546Z,5.10
2023-05-06T13:14:37.681Z,5.17
2023-05-06T13:17:06.105Z,5.60
2023-05-06T13:19:33.635Z,9.40
2023-05-06T13:22:01.961Z,6.27
2023-05-06T13:24:29.130Z,5.03
2023-05-06T13:26:58.740Z,4.70
2023-05-06T13:29:26.576Z,6.70
2023-05-06T13:31:55.268Z,6.57
2023-05-06T13:34:22.928Z,4.50
2023-05-06T13:36:50.321Z,4.90
2023-05-06T13:39:17.856Z,6.23
2023-05-06T13:41:49.573Z,5.37
2023-05-06T13:44:16.885Z,7.57
2023-05-06T13:46:46.432Z,5.90
2023-05-06T13:49:18.476Z,18.60
2023-05-06T13:51:45.432Z,8.93
2023-05-06T13:54:12.007Z,8.43
2023-05-06T13:56:38.625Z,7.83
2023-05-06T13:59:07.833Z,9.10
2023-05-06T14:01:35.607Z,14.33
2023-05-06T14:04:02.243Z,5.23
2023-05-06T14:06:31.621Z,8.13
2023-05-06T14:08:58.294Z,6.83
2023-05-06T14:11:25.273Z,5.17
2023-05-06T14:13:51.896Z,9.00
2023-05-06T14:16:18.538Z,9.70
2023-05-06T14:18:45.974Z,6.37
2023-05-06T14:21:12.649Z,15.90
2023-05-06T14:23:39.474Z,5.13
2023-05-06T14:26:06.055Z,3.77
2023-05-06T14:28:32.620Z,6.60
2023-05-06T14:30:59.210Z,7.43
2023-05-06T14:33:26.019Z,5.67
2023-05-06T14:35:53.427Z,7.70
2023-05-06T14:38:20.347Z,4.83
2023-05-06T14:40:46.999Z,6.47
2023-05-06T14:43:13.574Z,12.37
2023-05-06T14:45:40.241Z,5.10
2023-05-06T14:48:06.935Z,3.93
2023-05-06T14:50:33.944Z,11.43
2023-05-06T14:53:03.551Z,6.57
2023-05-06T14:55:31.049Z,6.50
2023-05-06T14:57:57.700Z,6.10
2023-05-06T15:00:24.744Z,6.60
2023-05-06T15:02:51.424Z,9.03
2023-05-06T15:05:18.158Z,2.80
2023-05-06T15:07:44.782Z,6.47
2023-05-06T15:10:12.118Z,5.43
2023-05-06T15:12:38.776Z,7.53
2023-05-06T15:15:07.053Z,5.13
2023-05-06T15:17:33.644Z,6.27
2023-05-06T15:20:00.499Z,4.87
2023-05-06T15:22:27.109Z,11.87
2023-05-06T15:24:53.668Z,9.50
2023-05-06T15:27:21.032Z,5.77
2023-05-06T15:29:47.938Z,8.27
2023-05-06T15:32:14.594Z,7.30
2023-05-06T15:34:41.259Z,9.17
2023-05-06T15:37:08.493Z,5.37
2023-05-06T15:39:36.790Z,7.63
2023-05-06T15:42:05.468Z,7.03
2023-05-06T15:44:33.186Z,7.40
2023-05-06T15:47:00.155Z,9.77
2023-05-06T15:49:49.322Z,6.13
2023-05-06T15:52:13.830Z,4.70
2023-05-06T15:54:49.757Z,6.07
2023-05-06T15:57:17.892Z,4.60
2023-05-06T15:59:45.216Z,7.03
2023-05-06T16:02:26.901Z,6.53
2023-05-06T16:04:55.322Z,10.87
2023-05-06T16:07:22.132Z,8.10
2023-05-06T16:09:50.450Z,7.50
2023-05-06T16:12:17.354Z,5.90
2023-05-06T16:14:44.829Z,14.57
2023-05-06T16:17:11.637Z,6.30
2023-05-06T16:19:38.497Z,6.37
2023-05-06T16:22:05.187Z,4.70
2023-05-06T16:24:31.772Z,5.40
2023-05-06T16:26:58.592Z,10.50
2023-05-06T16:29:27.642Z,5.50
2023-05-06T16:31:55.045Z,9.97
2023-05-06T16:34:21.902Z,11.97
2023-05-06T16:36:49.593Z,5.23
2023-05-06T16:39:16.402Z,6.43
2023-05-06T16:41:43.501Z,7.33
2023-05-06T16:44:10.183Z,6.67
2023-05-06T16:46:36.814Z,6.97
2023-05-06T16:49:04.136Z,7.47
2023-05-06T16:51:31.355Z,8.70
2023-05-06T16:53:57.983Z,11.37
2023-05-06T16:56:28.140Z,8.57
2023-05-06T16:58:57.040Z,7.77
2023-05-06T17:01:23.736Z,10.70
2023-05-06T17:03:50.630Z,10.10
2023-05-06T17:06:17.929Z,11.17
2023-05-06T17:08:44.675Z,8.40
2023-05-06T17:11:11.354Z,8.13
2023-05-06T17:13:38.142Z,8.03
2023-05-06T17:16:05.323Z,8.93
2023-05-06T17:18:32.290Z,10.27
2023-05-06T17:21:01.133Z,8.53
2023-05-06T17:23:28.352Z,9.77
2023-05-06T17:25:55.824Z,9.37
2023-05-06T17:28:22.454Z,11.90
2023-05-06T17:30:49.399Z,14.20
2023-05-06T17:33:16.104Z,9.20
2023-05-06T17:35:43.004Z,9.77
2023-05-06T17:38:11.664Z,8.83
2023-05-06T17:40:39.068Z,9.23
2023-05-06T17:43:06.819Z,9.00
2023-05-06T17:45:33.764Z,10.83
2023-05-06T17:48:00.490Z,9.23
2023-05-06T17:50:27.151Z,9.67
2023-05-06T17:52:53.844Z,11.33
2023-05-06T17:55:22.291Z,10.60
2023-05-06T17:57:51.006Z,11.77
2023-05-06T18:00:18.198Z,14.43
2023-05-06T18:02:45.370Z,9.57
2023-05-06T18:05:13.004Z,8.23
2023-05-06T18:07:40.266Z,13.63
2023-05-06T18:10:08.073Z,11.40
2023-05-06T18:12:34.808Z,11.70
2023-05-06T18:15:02.254Z,8.67
2023-05-06T18:17:29.065Z,14.70
2023-05-06T18:19:56.143Z,9.60
2023-05-06T18:22:22.812Z,13.07
2023-05-06T18:24:54.238Z,15.20
2023-05-06T18:27:28.871Z,10.93
2023-05-06T18:29:56.070Z,16.33
2023-05-06T18:32:23.604Z,11.80
2023-05-06T18:34:50.219Z,13.63
2023-05-06T18:37:17.037Z,11.93
2023-05-06T18:39:45.106Z,14.97
2023-05-06T18:42:11.844Z,12.17
2023-05-06T18:44:38.537Z,17.00
2023-05-06T18:47:05.435Z,17.43
2023-05-06T18:49:35.092Z,13.07
2023-05-06T18:52:02.769Z,16.60
2023-05-06T18:54:30.308Z,15.23
2023-05-06T18:56:57.921Z,13.63
2023-05-06T18:59:25.731Z,16.70
2023-05-06T19:01:53.778Z,15.77
2023-05-06T19:04:20.467Z,15.03
2023-05-06T19:06:48.322Z,18.83
2023-05-06T19:09:16.264Z,19.37
2023-05-06T19:11:43.152Z,20.80
2023-05-06T19:14:11.200Z,24.87
2023-05-06T19:16:39.130Z,21.67
2023-05-06T19:19:06.683Z,23.47
2023-05-06T19:21:36.845Z,22.77
2023-05-06T19:24:04.790Z,24.13
2023-05-06T19:26:34.078Z,21.17
2023-05-06T19:29:00.799Z,17.67
2023-05-06T19:31:28.282Z,19.37
2023-05-06T19:33:56.015Z,18.30
2023-05-06T19:36:25.163Z,27.47
2023-05-06T19:38:53.249Z,20.87
2023-05-06T19:41:22.650Z,27.67
2023-05-06T19:43:52.207Z,23.17
2023-05-06T19:46:18.915Z,25.10
2023-05-06T19:48:47.147Z,22.87
2023-05-06T19:51:14.815Z,26.97
2023-05-06T19:53:41.972Z,21.40
2023-05-06T19:56:09.302Z,26.10
2023-05-06T19:58:38.854Z,29.43
2023-05-06T20:01:06.787Z,27.63
2023-05-06T20:03:35.197Z,31.53
2023-05-06T20:06:03.474Z,31.20
2023-05-06T20:08:30.644Z,24.70
2023-05-06T20:10:58.315Z,33.13
2023-05-06T20:13:25.336Z,32.60
2023-05-06T20:15:54.431Z,29.70
2023-05-06T20:18:21.149Z,26.60
2023-05-06T20:20:47.778Z,32.03
2023-05-06T20:23:14.868Z,28.97
2023-05-06T20:25:41.632Z,29.03
2023-05-06T20:28:08.337Z,29.27
2023-05-06T20:30:34.971Z,31.80
2023-05-06T20:33:03.016Z,26.57
2023-05-06T20:35:30.062Z,29.07
2023-05-06T20:37:57.608Z,31.10
2023-05-06T20:40:24.370Z,29.30
2023-05-06T20:42:50.998Z,27.43
2023-05-06T20:45:19.030Z,27.57
2023-05-06T20:47:45.685Z,29.50
2023-05-06T20:50:16.420Z,37.77
2023-05-06T20:52:44.941Z,41.60
2023-05-06T20:55:13.643Z,33.10
2023-05-06T20:57:44.011Z,33.77
2023-05-06T21:00:12.013Z,35.67
2023-05-06T21:02:41.246Z,29.63
2023-05-06T21:05:09.488Z,32.23
2023-05-06T21:07:36.989Z,31.90
2023-05-06T21:10:05.174Z,35.00
2023-05-06T21:12:32.539Z,39.43
2023-05-06T21:14:59.410Z,34.33
2023-05-06T21:17:26.345Z,36.70
2023-05-06T21:19:53.134Z,34.50
2023-05-06T21:22:21.853Z,32.70
2023-05-06T21:24:50.124Z,34.73
2023-05-06T21:27:16.871Z,36.57
2023-05-06T21:29:43.459Z,38.03
2023-05-06T21:32:10.826Z,42.47
2023-05-06T21:34:37.710Z,32.77
2023-05-06T21:37:04.608Z,35.30
2023-05-06T21:39:31.815Z,39.53
2023-05-06T21:41:59.659Z,36.07
2023-05-06T21:44:26.292Z,36.07
2023-05-06T21:46:53.035Z,35.00
2023-05-06T21:49:21.678Z,40.57
2023-05-06T21:51:48.339Z,34.73
2023-05-06T21:54:16.292Z,32.73
2023-05-06T21:56:43.143Z,30.03
2023-05-06T21:59:10.370Z,33.93
2023-05-06T22:01:37.737Z,29.10
2023-05-06T22:04:10.307Z,36.60
2023-05-06T22:06:37.273Z,29.40
2023-05-06T22:09:08.484Z,36.50
2023-05-06T22:11:37.148Z,28.47
2023-05-06T22:14:05.352Z,31.93
2023-05-06T22:16:34.917Z,30.87
2023-05-06T22:19:03.464Z,29.53
2023-05-06T22:21:30.436Z,31.40
2023-05-06T22:23:57.371Z,29.40
2023-05-06T22:26:24.292Z,35.70
2023-05-06T22:28:50.920Z,24.90
2023-05-06T22:31:17.599Z,36.67
2023-05-06T22:33:46.877Z,27.77
2023-05-06T22:36:13.591Z,27.83
2023-05-06T22:38:40.156Z,27.00
2023-05-06T22:41:06.813Z,34.03
2023-05-06T22:43:33.407Z,31.67
2023-05-06T22:46:00.028Z,32.43
2023-05-06T22:48:27.168Z,27.37
2023-05-06T22:50:55.618Z,32.77
2023-05-06T22:53:22.195Z,35.27
2023-05-06T22:55:48.797Z,26.77
2023-05-06T22:58:15.365Z,33.30
2023-05-06T23:00:42.568Z,30.07
2023-05-06T23:03:09.468Z,25.70
2023-05-06T23:05:36.090Z,32.43
2023-05-06T23:08:03.400Z,36.80
2023-05-06T23:10:30.833Z,34.50
2023-05-06T23:13:00.500Z,28.53
2023-05-06T23:15:27.224Z,31.27
2023-05-06T23:17:53.912Z,29.40
2023-05-06T23:20:20.732Z,24.13
2023-05-06T23:22:47.451Z,29.47
2023-05-06T23:25:15.141Z,24.30
2023-05-06T23:27:43.012Z,33.00
2023-05-06T23:30:11.077Z,24.87
2023-05-06T23:32:38.623Z,27.57
2023-05-06T23:35:06.649Z,29.37
2023-05-06T23:37:33.434Z,35.67
2023-05-06T23:40:00.114Z,33.00
2023-05-06T23:42:27.386Z,25.70
2023-05-06T23:44:54.013Z,24.90
2023-05-06T23:47:20.945Z,24.83
2023-05-06T23:49:47.565Z,28.27
2023-05-06T23:52:14.214Z,22.23
2023-05-06T23:54:40.766Z,23.00
2023-05-06T23:57:07.399Z,36.03
2023-05-06T23:59:34.859Z,25.60
